createdAt,value
2022-09-05T00:00:12.376Z,7.07
2022-09-05T00:02:56.227Z,7.63
2022-09-05T00:06:02.798Z,7.38
2022-09-05T00:08:44.584Z,7.90
2022-09-05T00:11:40.916Z,7.45
2022-09-05T00:14:34.451Z,7.32
2022-09-05T00:17:18.590Z,6.95
2022-09-05T00:24:22.387Z,7.10
2022-09-05T00:24:34.504Z,6.82
2022-09-05T00:26:08.214Z,6.72
2022-09-05T00:28:45.781Z,6.72
2022-09-05T00:31:56.043Z,6.35
2022-09-05T00:34:41.163Z,6.10
2022-09-05T00:37:28.642Z,6.65
2022-09-05T00:40:18.485Z,6.90
2022-09-05T00:42:50.065Z,6.40
2022-09-05T00:45:25.293Z,5.82
2022-09-05T00:48:00.262Z,5.90
2022-09-05T00:50:35.378Z,6.13
2022-09-05T00:53:10.387Z,6.13
2022-09-05T00:55:47.459Z,5.97
2022-09-05T00:58:41.657Z,5.65
2022-09-05T01:01:26.500Z,6.00
2022-09-05T01:04:29.639Z,5.63
2022-09-05T01:07:13.195Z,5.78
2022-09-05T01:09:51.099Z,5.38
2022-09-05T01:12:52.834Z,5.53
2022-09-05T01:15:32.216Z,5.57
2022-09-05T01:18:11.026Z,6.10
2022-09-05T01:20:50.606Z,5.35
2022-09-05T01:23:41.966Z,4.40
2022-09-05T01:26:52.888Z,5.22
2022-09-05T01:29:28.530Z,4.85
2022-09-05T01:32:10.239Z,4.75
2022-09-05T01:34:55.146Z,5.57
2022-09-05T01:37:33.686Z,4.68
2022-09-05T01:40:16.842Z,4.35
2022-09-05T01:42:55.723Z,4.88
2022-09-05T01:45:38.729Z,4.88
2022-09-05T01:48:14.275Z,4.18
2022-09-05T01:50:50.338Z,4.53
2022-09-05T01:53:37.171Z,4.93
2022-09-05T01:56:28.233Z,4.25
2022-09-05T01:59:06.612Z,3.80
2022-09-05T02:01:48.110Z,4.53
2022-09-05T02:04:38.084Z,4.03
2022-09-05T02:07:29.872Z,4.20
2022-09-05T02:10:30.923Z,4.53
2022-09-05T02:13:12.469Z,4.75
2022-09-05T02:15:59.164Z,4.20
2022-09-05T02:18:44.340Z,4.65
2022-09-05T02:21:22.126Z,3.88
2022-09-05T02:24:02.319Z,4.07
2022-09-05T02:26:37.105Z,3.67
2022-09-05T02:32:02.943Z,4.45
2022-09-05T02:34:42.381Z,3.67
2022-09-05T02:37:22.849Z,4.25
2022-09-05T02:45:02.416Z,3.47
2022-09-05T02:45:19.266Z,3.80
2022-09-05T02:46:04.717Z,3.85
2022-09-05T02:48:47.982Z,4.13
2022-09-05T02:57:23.742Z,3.92
2022-09-05T02:57:39.659Z,4.00
2022-09-05T02:58:04.949Z,3.78
2022-09-05T03:00:19.542Z,3.13
2022-09-05T03:03:05.267Z,3.85
2022-09-05T03:05:39.334Z,3.55
2022-09-05T03:08:29.375Z,3.73
2022-09-05T03:11:38.938Z,3.92
2022-09-05T03:14:51.167Z,3.08
2022-09-05T03:18:20.883Z,4.07
2022-09-05T03:21:25.860Z,3.30
2022-09-05T03:24:35.334Z,3.45
2022-09-05T03:27:36.331Z,3.33
2022-09-05T03:30:12.163Z,3.35
2022-09-05T03:33:27.826Z,3.60
2022-09-05T03:36:21.991Z,3.33
2022-09-05T03:39:34.975Z,3.28
2022-09-05T03:42:31.200Z,3.28
2022-09-05T03:45:31.252Z,2.90
2022-09-05T03:48:28.345Z,3.47
2022-09-05T03:57:10.635Z,3.08
2022-09-05T03:57:11.072Z,2.85
2022-09-05T03:57:41.873Z,2.92
2022-09-05T04:00:21.847Z,2.90
2022-09-05T04:08:07.988Z,2.63
2022-09-05T04:08:29.882Z,3.28
2022-09-05T04:08:52.245Z,2.95
2022-09-05T04:11:31.798Z,2.60
2022-09-05T04:14:03.624Z,3.00
2022-09-05T04:16:43.774Z,3.00
2022-09-05T04:19:19.137Z,3.50
2022-09-05T04:21:52.309Z,3.00
2022-09-05T04:24:30.413Z,3.20
2022-09-05T04:27:22.178Z,2.67
2022-09-05T04:30:14.636Z,3.03
2022-09-05T04:35:30.327Z,2.70
2022-09-05T04:38:06.323Z,2.60
2022-09-05T04:40:39.113Z,3.05
2022-09-05T04:43:10.423Z,3.03
2022-09-05T04:45:42.343Z,2.53
2022-09-05T04:48:23.693Z,2.90
2022-09-05T04:51:06.164Z,2.65
2022-09-05T04:53:46.894Z,2.85
2022-09-05T04:56:20.496Z,2.47
2022-09-05T05:00:24.407Z,2.78
2022-09-05T05:06:17.932Z,2.83
2022-09-05T05:06:22.511Z,2.38
2022-09-05T05:07:31.505Z,2.78
2022-09-05T05:11:08.829Z,2.90
2022-09-05T05:18:00.362Z,2.35
2022-09-05T05:18:10.385Z,2.35
2022-09-05T05:18:59.576Z,2.47
2022-09-05T05:21:34.148Z,2.53
2022-09-05T05:24:11.006Z,2.72
2022-09-05T05:26:56.679Z,2.50
2022-09-05T05:29:29.550Z,2.40
2022-09-05T05:32:01.466Z,2.38
2022-09-05T05:34:34.022Z,2.30
2022-09-05T05:37:10.054Z,2.08
2022-09-05T05:39:43.777Z,2.70
2022-09-05T05:42:20.273Z,2.35
2022-09-05T05:44:53.863Z,2.10
2022-09-05T05:47:29.822Z,2.13
2022-09-05T05:50:11.289Z,2.33
2022-09-05T05:53:02.802Z,2.13
2022-09-05T05:55:57.578Z,2.60
2022-09-05T05:59:07.325Z,2.10
2022-09-05T06:02:07.739Z,2.17
2022-09-05T06:05:32.461Z,2.00
2022-09-05T06:10:06.482Z,2.17
2022-09-05T06:14:50.125Z,1.85
2022-09-05T06:15:10.183Z,1.90
2022-09-05T06:18:29.514Z,2.13
2022-09-05T06:22:09.974Z,2.25
2022-09-05T06:24:58.739Z,1.83
2022-09-05T06:28:19.286Z,2.08
2022-09-05T06:31:02.081Z,2.05
2022-09-05T06:33:59.988Z,2.10
2022-09-05T06:36:49.004Z,2.20
2022-09-05T06:39:24.917Z,2.22
2022-09-05T06:42:28.534Z,1.70
2022-09-05T06:45:28.453Z,1.77
2022-09-05T06:48:03.020Z,1.75
2022-09-05T06:51:03.299Z,2.10
2022-09-05T06:53:53.206Z,2.08
2022-09-05T06:56:41.378Z,1.93
2022-09-05T06:59:52.157Z,2.13
2022-09-05T07:03:00.210Z,2.10
2022-09-05T07:05:38.857Z,2.00
2022-09-05T07:08:34.672Z,2.05
2022-09-05T07:11:11.535Z,1.80
2022-09-05T07:14:00.725Z,2.42
2022-09-05T07:16:43.970Z,1.93
2022-09-05T07:19:26.639Z,1.65
2022-09-05T07:22:45.956Z,1.98
2022-09-05T07:25:08.808Z,1.70
2022-09-05T07:27:42.000Z,1.80
2022-09-05T07:30:28.891Z,2.00
2022-09-05T07:32:59.189Z,2.05
2022-09-05T07:35:31.257Z,1.98
2022-09-05T07:38:14.819Z,1.65
2022-09-05T07:40:51.483Z,1.85
2022-09-05T07:43:24.839Z,1.80
2022-09-05T07:46:11.526Z,1.90
2022-09-05T07:48:44.429Z,1.90
2022-09-05T07:56:56.044Z,1.60
2022-09-05T07:57:06.156Z,2.00
2022-09-05T08:00:05.359Z,2.38
2022-09-05T08:02:33.458Z,2.20
2022-09-05T08:05:05.163Z,1.80
2022-09-05T08:07:48.715Z,1.83
2022-09-05T08:10:30.918Z,2.13
2022-09-05T08:13:23.553Z,1.85
2022-09-05T08:16:13.744Z,1.67
2022-09-05T08:18:46.051Z,1.65
2022-09-05T08:21:27.776Z,1.75
2022-09-05T08:24:05.426Z,1.90
2022-09-05T08:26:47.272Z,1.60
2022-09-05T08:29:28.303Z,1.57
2022-09-05T08:32:02.776Z,1.58
2022-09-05T08:34:44.931Z,1.92
2022-09-05T08:37:21.496Z,2.05
2022-09-05T08:40:10.292Z,1.60
2022-09-05T08:42:55.801Z,1.65
2022-09-05T08:46:40.345Z,1.67
2022-09-05T08:48:53.763Z,1.60
2022-09-05T08:51:30.774Z,2.05
2022-09-05T08:54:12.770Z,2.10
2022-09-05T08:56:53.220Z,1.90
2022-09-05T08:59:32.621Z,1.90
2022-09-05T09:02:49.053Z,1.60
2022-09-05T09:06:14.506Z,2.00
2022-09-05T09:08:22.678Z,1.80
2022-09-05T09:10:57.373Z,1.88
2022-09-05T09:13:37.649Z,1.45
2022-09-05T09:16:11.234Z,1.60
2022-09-05T09:18:46.869Z,1.40
2022-09-05T09:21:25.715Z,1.52
2022-09-05T09:24:07.095Z,1.70
2022-09-05T09:26:42.496Z,1.92
2022-09-05T09:29:14.313Z,1.40
2022-09-05T09:31:59.905Z,1.38
2022-09-05T09:34:45.761Z,1.77
2022-09-05T09:37:50.920Z,1.48
2022-09-05T09:41:02.215Z,1.63
2022-09-05T09:43:44.187Z,1.50
2022-09-05T09:46:39.018Z,1.35
2022-09-05T09:49:31.842Z,1.30
2022-09-05T09:52:28.579Z,1.38
2022-09-05T09:55:46.319Z,1.50
2022-09-05T09:58:36.749Z,1.67
2022-09-05T10:01:35.110Z,1.40
2022-09-05T10:10:34.327Z,1.50
2022-09-05T10:10:54.672Z,1.45
2022-09-05T10:11:52.122Z,1.55
2022-09-05T10:14:49.298Z,1.58
2022-09-05T10:17:50.688Z,1.52
2022-09-05T10:20:57.918Z,1.40
2022-09-05T10:24:15.333Z,1.50
2022-09-05T10:27:14.616Z,1.30
2022-09-05T10:29:46.688Z,1.65
2022-09-05T10:35:10.889Z,1.25
2022-09-05T10:35:23.533Z,1.40
2022-09-05T10:37:58.282Z,1.45
2022-09-05T10:40:31.010Z,1.40
2022-09-05T10:43:22.285Z,1.50
2022-09-05T10:45:58.142Z,1.98
2022-09-05T10:48:29.224Z,1.63
2022-09-05T10:51:01.618Z,1.45
2022-09-05T10:53:39.384Z,1.38
2022-09-05T10:56:14.781Z,1.95
2022-09-05T11:02:16.308Z,1.23
2022-09-05T11:02:26.570Z,1.30
2022-09-05T11:04:52.231Z,1.40
2022-09-05T11:07:29.397Z,1.30
2022-09-05T11:10:11.695Z,1.15
2022-09-05T11:13:16.858Z,1.30
2022-09-05T11:16:03.593Z,1.30
2022-09-05T11:18:55.556Z,1.30
2022-09-05T11:21:37.919Z,1.30
2022-09-05T11:24:21.325Z,1.17
2022-09-05T11:27:24.227Z,1.27
2022-09-05T11:29:50.687Z,1.13
2022-09-05T11:38:02.811Z,1.50
2022-09-05T11:39:47.267Z,1.50
2022-09-05T11:40:09.968Z,1.15
2022-09-05T11:42:25.270Z,1.05
2022-09-05T11:45:29.461Z,1.25
2022-09-05T11:48:23.500Z,1.20
2022-09-05T11:51:33.375Z,1.13
2022-09-05T11:54:28.039Z,0.85
2022-09-05T11:57:33.725Z,1.25
2022-09-05T12:00:31.214Z,0.85
2022-09-05T12:04:00.338Z,1.27
2022-09-05T12:09:20.290Z,1.00
2022-09-05T12:12:27.008Z,1.10
2022-09-05T12:15:18.007Z,0.90
2022-09-05T12:18:02.796Z,1.00
2022-09-05T12:20:43.171Z,0.80
2022-09-05T12:23:25.404Z,0.90
2022-09-05T12:27:43.821Z,1.10
2022-09-05T12:29:26.507Z,0.90
2022-09-05T12:33:33.922Z,1.00
2022-09-05T12:36:10.819Z,0.90
2022-09-05T12:40:54.551Z,1.40
2022-09-05T12:41:37.514Z,1.10
2022-09-05T12:44:37.012Z,0.98
2022-09-05T12:46:26.308Z,1.10
2022-09-05T12:49:00.374Z,0.90
2022-09-05T12:51:46.376Z,1.00
2022-09-05T12:54:32.915Z,0.90
2022-09-05T12:58:50.904Z,0.77
2022-09-05T13:02:57.794Z,0.80
2022-09-05T13:03:01.187Z,0.80
2022-09-05T13:05:52.716Z,0.80
2022-09-05T13:08:27.588Z,0.93
2022-09-05T13:14:59.082Z,0.98
2022-09-05T13:16:44.359Z,0.98
2022-09-05T13:19:24.153Z,0.90
2022-09-05T13:21:57.349Z,0.93
2022-09-05T13:24:32.112Z,1.45
2022-09-05T13:27:07.633Z,0.93
2022-09-05T13:31:12.407Z,1.17
2022-09-05T13:37:55.297Z,1.20
2022-09-05T13:38:11.507Z,1.15
2022-09-05T13:38:48.630Z,1.58
2022-09-05T13:41:28.398Z,1.00
2022-09-05T13:44:00.325Z,1.10
2022-09-05T13:46:58.209Z,1.20
2022-09-05T13:49:32.302Z,0.73
2022-09-05T13:52:17.350Z,1.13
2022-09-05T13:54:51.683Z,1.00
2022-09-05T13:57:41.811Z,1.10
2022-09-05T14:00:46.687Z,1.17
2022-09-05T14:03:39.406Z,1.02
2022-09-05T14:06:47.488Z,1.30
2022-09-05T14:09:46.419Z,0.95
2022-09-05T14:12:27.837Z,1.10
2022-09-05T14:15:15.730Z,1.10
2022-09-05T14:18:01.332Z,1.05
2022-09-05T14:20:50.334Z,0.80
2022-09-05T14:23:21.027Z,0.85
2022-09-05T14:25:52.760Z,1.00
2022-09-05T14:28:26.782Z,0.90
2022-09-05T14:35:03.599Z,0.73
2022-09-05T14:37:45.118Z,0.88
2022-09-05T14:37:51.716Z,0.93
2022-09-05T14:40:30.253Z,0.88
2022-09-05T14:43:27.386Z,0.95
2022-09-05T14:46:25.963Z,0.90
2022-09-05T14:49:28.980Z,1.02
2022-09-05T14:51:58.461Z,0.80
2022-09-05T15:00:38.639Z,0.90
2022-09-05T15:03:00.617Z,0.88
2022-09-05T15:03:05.563Z,0.88
2022-09-05T15:05:41.801Z,1.15
2022-09-05T15:09:43.486Z,0.90
2022-09-05T15:12:21.289Z,0.80
2022-09-05T15:13:57.426Z,0.98
2022-09-05T15:16:26.556Z,1.80
2022-09-05T15:18:56.345Z,1.58
2022-09-05T15:21:33.755Z,2.13
2022-09-05T15:24:13.456Z,2.20
2022-09-05T15:26:52.571Z,3.60
2022-09-05T15:29:24.737Z,2.63
2022-09-05T15:31:59.447Z,3.47
2022-09-05T15:34:39.964Z,5.38
2022-09-05T15:37:24.297Z,6.15
2022-09-05T15:40:02.986Z,9.90
2022-09-05T15:42:33.811Z,10.63
2022-09-05T15:45:10.049Z,14.20
2022-09-05T15:47:43.891Z,16.90
2022-09-05T15:50:21.331Z,19.63
2022-09-05T15:52:55.624Z,25.80
2022-09-05T15:55:26.187Z,24.17
2022-09-05T15:57:57.425Z,22.98
2022-09-05T16:00:42.730Z,22.48
2022-09-05T16:06:34.974Z,26.00
2022-09-05T16:10:30.710Z,27.92
2022-09-05T16:10:57.600Z,25.95
2022-09-05T16:12:16.628Z,27.75
2022-09-05T16:14:58.061Z,26.02
2022-09-05T16:23:16.884Z,25.83
2022-09-05T16:23:23.412Z,26.15
2022-09-05T16:23:42.096Z,23.55
2022-09-05T16:26:19.119Z,24.55
2022-09-05T16:28:58.613Z,23.50
2022-09-05T16:31:35.513Z,24.77
2022-09-05T16:34:08.402Z,23.85
2022-09-05T16:36:50.494Z,22.55
2022-09-05T16:39:40.266Z,22.58
2022-09-05T16:42:17.786Z,21.90
2022-09-05T16:44:51.142Z,22.83
2022-09-05T16:47:25.626Z,23.13
2022-09-05T16:50:01.799Z,21.63
2022-09-05T16:52:39.459Z,21.15
2022-09-05T16:55:29.648Z,22.05
2022-09-05T16:58:05.447Z,20.98
2022-09-05T17:00:59.715Z,20.42
2022-09-05T17:03:42.540Z,20.48
2022-09-05T17:06:26.329Z,19.17
2022-09-05T17:09:13.050Z,20.92
2022-09-05T17:11:58.454Z,18.83
2022-09-05T17:14:34.421Z,19.52
2022-09-05T17:17:20.122Z,17.90
2022-09-05T17:20:06.805Z,19.20
2022-09-05T17:24:24.450Z,17.65
2022-09-05T17:29:31.264Z,16.88
2022-09-05T17:29:32.868Z,18.63
2022-09-05T17:31:55.895Z,17.20
2022-09-05T17:34:48.214Z,16.25
2022-09-05T17:37:44.727Z,16.58
2022-09-05T17:40:49.229Z,16.27
2022-09-05T17:43:28.872Z,16.90
2022-09-05T17:46:15.525Z,15.93
2022-09-05T17:49:17.605Z,15.00
2022-09-05T17:52:28.679Z,15.02
2022-09-05T17:54:57.356Z,16.65
2022-09-05T17:57:41.449Z,15.55
2022-09-05T18:00:47.311Z,14.90
2022-09-05T18:04:15.890Z,14.43
2022-09-05T18:06:59.780Z,14.65
2022-09-05T18:10:12.808Z,14.93
2022-09-05T18:13:12.784Z,13.82
2022-09-05T18:16:13.132Z,14.43
2022-09-05T18:19:28.657Z,13.98
2022-09-05T18:21:51.694Z,13.75
2022-09-05T18:27:36.423Z,15.13
2022-09-05T18:30:26.906Z,16.08
2022-09-05T18:33:53.963Z,16.90
2022-09-05T18:36:34.852Z,18.88
2022-09-05T18:39:40.189Z,18.10
2022-09-05T18:42:26.537Z,19.17
2022-09-05T18:45:14.487Z,21.15
2022-09-05T18:47:51.061Z,21.92
2022-09-05T18:50:27.894Z,23.83
2022-09-05T18:53:08.907Z,24.35
2022-09-05T18:56:11.461Z,25.65
2022-09-05T18:58:35.549Z,28.10
2022-09-05T19:01:20.678Z,28.48
2022-09-05T19:03:52.383Z,30.00
2022-09-05T19:06:37.082Z,32.83
2022-09-05T19:09:09.689Z,33.13
2022-09-05T19:11:53.158Z,36.55
2022-09-05T19:14:44.381Z,35.85
2022-09-05T19:17:19.199Z,37.83
2022-09-05T19:20:33.384Z,38.63
2022-09-05T19:23:11.803Z,39.72
2022-09-05T19:25:43.530Z,43.17
2022-09-05T19:36:48.626Z,42.78
2022-09-05T19:36:54.139Z,44.08
2022-09-05T19:36:59.991Z,43.88
2022-09-05T19:37:29.625Z,45.55
2022-09-05T19:46:26.192Z,30.30
2022-09-05T19:47:27.827Z,38.78
2022-09-05T19:47:43.286Z,37.90
2022-09-05T19:50:56.073Z,42.45
2022-09-05T19:53:25.040Z,42.55
2022-09-05T19:55:53.710Z,43.55
2022-09-05T19:58:24.108Z,47.25
2022-09-05T20:01:03.304Z,44.95
2022-09-05T20:03:38.424Z,46.30
2022-09-05T20:06:30.249Z,48.08
2022-09-05T20:09:11.003Z,47.70
2022-09-05T20:11:46.410Z,49.00
2022-09-05T20:14:24.075Z,51.50
2022-09-05T20:16:55.953Z,52.00
2022-09-05T20:19:31.345Z,51.58
2022-09-05T20:22:10.231Z,51.88
2022-09-05T20:24:51.797Z,53.78
2022-09-05T20:27:27.170Z,54.25
2022-09-05T20:29:58.551Z,53.72
2022-09-05T20:32:38.835Z,56.58
2022-09-05T20:38:40.814Z,26.85
2022-09-05T20:43:21.592Z,16.92
2022-09-05T20:43:30.099Z,10.43
2022-09-05T20:43:56.522Z,8.57
2022-09-05T20:48:58.839Z,9.82
2022-09-05T20:54:12.982Z,5.13
2022-09-05T20:54:17.180Z,6.28
2022-09-05T20:55:38.651Z,6.05
2022-09-05T20:58:11.848Z,5.97
2022-09-05T21:01:20.202Z,4.85
2022-09-05T21:03:36.683Z,6.18
2022-09-05T21:06:24.923Z,4.13
2022-09-05T21:08:55.985Z,4.40
2022-09-05T21:11:32.534Z,4.78
2022-09-05T21:14:04.390Z,4.85
2022-09-05T21:16:36.647Z,5.05
2022-09-05T21:19:04.943Z,4.22
2022-09-05T21:21:35.549Z,4.80
2022-09-05T21:24:16.488Z,4.10
2022-09-05T21:26:50.208Z,4.25
2022-09-05T21:29:32.566Z,5.63
2022-09-05T21:32:10.587Z,6.90
2022-09-05T21:34:44.737Z,10.57
2022-09-05T21:37:15.954Z,14.80
2022-09-05T21:40:00.319Z,17.60
2022-09-05T21:45:30.326Z,21.55
2022-09-05T21:47:44.678Z,17.17
2022-09-05T21:48:14.881Z,16.65
2022-09-05T21:50:46.736Z,18.48
2022-09-05T21:56:54.610Z,18.90
2022-09-05T21:59:28.594Z,17.10
2022-09-05T21:59:30.075Z,18.05
2022-09-05T22:01:54.140Z,16.05
2022-09-05T22:04:22.776Z,16.02
2022-09-05T22:06:53.209Z,16.30
2022-09-05T22:09:22.480Z,15.95
2022-09-05T22:11:52.423Z,15.75
2022-09-05T22:14:22.351Z,15.77
2022-09-05T22:16:51.849Z,16.00
2022-09-05T22:19:37.076Z,14.77
2022-09-05T22:22:15.537Z,14.27
2022-09-05T22:24:47.946Z,14.35
2022-09-05T22:27:20.136Z,13.98
2022-09-05T22:29:50.451Z,13.60
2022-09-05T22:32:33.741Z,13.85
2022-09-05T22:35:27.211Z,13.03
2022-09-05T22:38:01.349Z,13.27
2022-09-05T22:40:31.138Z,13.68
2022-09-05T22:43:02.042Z,12.55
2022-09-05T22:45:32.023Z,13.25
2022-09-05T22:48:00.519Z,13.23
2022-09-05T22:50:28.680Z,13.05
2022-09-05T22:52:56.796Z,13.30
2022-09-05T22:55:24.808Z,12.38
2022-09-05T22:57:53.816Z,11.90
2022-09-05T23:00:23.224Z,12.30
2022-09-05T23:02:56.778Z,12.38
2022-09-05T23:05:24.742Z,12.95
2022-09-05T23:07:52.779Z,12.27
2022-09-05T23:10:20.738Z,12.18
2022-09-05T23:12:48.719Z,12.07
2022-09-05T23:15:17.102Z,11.75
2022-09-05T23:17:53.196Z,11.38
2022-09-05T23:20:23.311Z,10.85
2022-09-05T23:22:51.276Z,11.65
2022-09-05T23:25:19.806Z,11.63
2022-09-05T23:27:47.779Z,11.18
2022-09-05T23:30:15.942Z,11.13
2022-09-05T23:32:51.008Z,11.38
2022-09-05T23:35:19.837Z,11.57
2022-09-05T23:37:49.087Z,11.27
2022-09-05T23:40:19.966Z,10.68
2022-09-05T23:42:53.061Z,10.35
2022-09-05T23:45:21.068Z,10.40
2022-09-05T23:47:50.438Z,10.07
2022-09-05T23:50:19.365Z,10.70
2022-09-05T23:52:48.074Z,10.02
2022-09-05T23:55:17.922Z,10.45
2022-09-05T23:57:46.475Z,9.73
